Time;durP1;ratioP1;P1;durP2;ratioP2;P2;SDS_P1;SDS_P2;PMS_P1;PMS_P2;Temp;Humidity;BMP_temperature;BMP_pressure;BME280_temperature;BME280_humidity;BME280_pressure;Samples;Min_cycle;Max_cycle;Signal;HPM_P1;HPM_P2
2022/08/04 00:01:06;;;;;;;15.60;6.50;;;;;;;20.38;57.96;99867.19;6227851;22;20016;-69
2022/08/04 00:03:51;;;;;;;9.60;6.30;;;;;;;20.31;58.62;99864.25;6228151;22;20081;-68
2022/08/04 00:06:25;;;;;;;9.90;6.85;;;;;;;20.29;58.72;99873.56;6229502;22;20744;-69
2022/08/04 00:08:55;;;;;;;;;;;;;;;20.38;56.93;99867.19;6228522;22;20047;-67
2022/08/04 00:11:22;;;;;;;6.85;5.80;;;;;;;20.21;58.96;99868.13;6227783;22;19919;-66
2022/08/04 00:13:56;;;;;;;9.90;6.90;;;;;;;20.18;59.43;99863.06;6227700;22;20011;-67
2022/08/04 00:16:22;;;;;;;8.90;6.75;;;;;;;20.13;59.10;99871.66;6229484;22;20102;-67
2022/08/04 00:18:54;;;;;;;11.52;6.25;;;;;;;20.12;59.36;99871.81;6201970;22;20046;-65
2022/08/04 00:21:22;;;;;;;8.73;6.60;;;;;;;20.05;59.80;99878.91;6227576;22;20458;-69
2022/08/04 00:23:48;;;;;;;9.15;6.53;;;;;;;20.02;59.95;99876.53;6227654;22;20477;-71
2022/08/04 00:26:15;;;;;;;10.88;6.63;;;;;;;20.00;59.89;99873.13;6227043;22;20012;-72
2022/08/04 00:28:41;;;;;;;10.02;6.03;;;;;;;19.97;59.95;99874.34;6227194;22;20016;-71
2022/08/04 00:31:09;;;;;;;10.00;7.00;;;;;;;19.96;60.05;99877.19;6227692;22;20355;-71
2022/08/04 00:33:34;;;;;;;11.13;7.85;;;;;;;19.92;59.81;99871.25;6228930;22;20020;-71
2022/08/04 00:35:59;;;;;;;9.55;6.43;;;;;;;19.89;60.19;99877.84;6201972;22;20561;-72
2022/08/04 00:38:25;;;;;;;8.52;6.70;;;;;;;19.87;59.99;99874.44;6229064;22;20043;-74
2022/08/04 00:41:04;;;;;;;11.18;6.70;;;;;;;19.91;60.25;99875.81;6232256;22;20019;-75
2022/08/04 00:43:45;;;;;;;8.88;6.38;;;;;;;19.86;60.25;99872.75;6229976;22;20889;-72
2022/08/04 00:46:33;;;;;;;11.88;7.25;;;;;;;19.88;59.87;99872.59;6229127;22;20095;-70
2022/08/04 00:49:22;;;;;;;10.48;6.63;;;;;;;19.87;59.91;99882.56;6201939;22;20614;-73
2022/08/04 00:52:30;;;;;;;10.73;6.78;;;;;;;19.87;60.14;99882.56;6228615;22;20016;-72
2022/08/04 00:55:09;;;;;;;10.90;6.85;;;;;;;19.87;60.10;99887.97;6230181;22;20020;-70
2022/08/04 00:57:53;;;;;;;13.27;6.88;;;;;;;19.85;60.16;99884.59;6229510;22;20024;-71
2022/08/04 01:00:19;;;;;;;9.35;6.80;;;;;;;19.81;59.96;99885.09;6228318;22;20064;-69
2022/08/04 01:03:09;;;;;;;9.82;6.38;;;;;;;19.91;60.18;99885.78;6230049;22;20876;-70
2022/08/04 01:05:46;;;;;;;10.93;7.05;;;;;;;19.87;60.33;99885.25;6233979;22;20320;-72
2022/08/04 01:08:19;;;;;;;11.23;6.80;;;;;;;19.89;59.97;99885.97;6231687;22;20015;-69
2022/08/04 01:10:57;;;;;;;10.40;6.63;;;;;;;19.83;60.51;99889.31;6231799;22;20079;-69
2022/08/04 01:13:37;;;;;;;8.88;6.93;;;;;;;19.89;60.23;99895.94;6231507;22;20019;-69
2022/08/04 01:16:04;;;;;;;13.30;7.15;;;;;;;19.86;60.39;99899.81;6230101;22;20261;-70
2022/08/04 01:18:48;;;;;;;9.82;6.80;;;;;;;19.87;60.35;99890.69;6230547;22;20019;-68
2022/08/04 01:21:28;;;;;;;9.30;6.03;;;;;;;19.92;60.37;99895.63;6230115;22;20075;-70
2022/08/04 01:24:11;;;;;;;9.98;6.70;;;;;;;19.91;60.25;99893.91;6229663;22;20016;-69
2022/08/04 01:26:51;;;;;;;9.77;6.50;;;;;;;19.88;60.63;99892.38;6202487;22;20012;-71
2022/08/04 01:29:19;;;;;;;9.80;7.22;;;;;;;19.85;60.96;99891.88;6202274;22;20016;-70
2022/08/04 01:32:03;;;;;;;12.70;7.13;;;;;;;19.91;60.66;99900.19;6229191;22;20023;-70
2022/08/04 01:34:34;;;;;;;14.32;7.30;;;;;;;19.87;60.91;99900.66;6227217;22;20020;-71
2022/08/04 01:37:26;;;;;;;11.52;6.70;;;;;;;19.88;60.68;99892.38;6226804;22;20019;-72
2022/08/04 01:40:00;;;;;;;8.43;6.63;;;;;;;19.91;60.72;99894.75;6227061;22;20015;-73
2022/08/04 01:42:29;;;;;;;13.93;7.65;;;;;;;19.86;60.94;99899.81;6227156;22;20019;-70
2022/08/04 01:44:57;;;;;;;9.80;7.00;;;;;;;19.84;58.94;99898.28;6201345;22;20584;-70
2022/08/04 01:47:28;;;;;;;12.40;7.70;;;;;;;19.91;58.96;99904.75;6227447;22;20098;-71
2022/08/04 01:49:54;;;;;;;13.35;8.00;;;;;;;19.96;58.54;99901.56;6228453;22;20016;-67
2022/08/04 01:52:19;;;;;;;12.30;7.95;;;;;;;20.03;60.12;99899.88;6201490;22;20269;-68
2022/08/04 01:54:45;;;;;;;11.70;7.68;;;;;;;20.05;59.75;99903.28;6226623;22;20050;-69
2022/08/04 01:57:10;;;;;;;14.93;7.63;;;;;;;20.07;59.68;99906.66;6228603;22;20026;-69
2022/08/04 01:59:37;;;;;;;9.25;7.07;;;;;;;20.12;60.29;99915.13;6228815;22;20023;-70
2022/08/04 02:02:02;;;;;;;9.93;6.95;;;;;;;20.08;59.77;99903.81;6230761;22;20023;-70
2022/08/04 02:04:27;;;;;;;11.05;7.55;;;;;;;20.07;60.39;99902.09;6231817;22;20459;-71
2022/08/04 02:07:07;;;;;;;7.57;6.35;;;;;;;20.05;60.11;99904.13;6233396;22;20477;-70
2022/08/04 02:09:43;;;;;;;9.65;7.57;;;;;;;20.07;60.17;99912.09;6204496;22;20505;-68
2022/08/04 02:12:25;;;;;;;10.68;6.78;;;;;;;20.09;60.22;99910.06;6231049;22;20421;-74
2022/08/04 02:15:15;;;;;;;11.75;7.32;;;;;;;20.07;59.76;99912.09;6237166;22;20065;-71
2022/08/04 02:18:00;;;;;;;10.85;7.55;;;;;;;20.12;58.47;99907.84;6239621;22;20023;-70
2022/08/04 02:20:37;;;;;;;15.20;8.25;;;;;;;20.14;57.00;99910.41;6231751;22;20019;-70
2022/08/04 02:23:13;;;;;;;14.55;8.18;;;;;;;20.17;56.24;99908.22;6230630;22;20015;-71
2022/08/04 02:25:46;;;;;;;10.85;7.60;;;;;;;20.32;58.29;99913.84;6229487;22;20090;-72
2022/08/04 02:28:23;;;;;;;9.60;7.80;;;;;;;20.40;57.04;99916.63;6229988;22;20020;-71
2022/08/04 02:31:03;;;;;;;9.23;7.18;;;;;;;20.44;58.29;99911.69;6228018;22;20250;-70
2022/08/04 02:34:00;;;;;;;13.13;7.95;;;;;;;20.55;58.67;99911.38;6202812;22;20015;-73
2022/08/04 02:36:40;;;;;;;16.20;7.60;;;;;;;20.57;58.92;99915.63;6230536;22;20036;-75
2022/08/04 02:39:12;;;;;;;13.10;7.43;;;;;;;20.60;58.67;99915.28;6178234;22;20094;-70
2022/08/04 02:41:41;;;;;;;15.68;8.13;;;;;;;20.59;56.71;99916.31;6229295;22;20011;-71
2022/08/04 02:44:18;;;;;;;12.38;8.07;;;;;;;20.65;58.95;99923.75;6231254;22;20020;-70
2022/08/04 02:46:45;;;;;;;11.73;7.75;;;;;;;20.69;58.98;99916.13;6229215;22;20519;-69
2022/08/04 02:49:10;;;;;;;12.25;7.75;;;;;;;20.74;56.96;99923.78;6230876;22;20027;-66
2022/08/04 02:51:56;;;;;;;13.98;8.70;;;;;;;20.88;56.72;99928.53;6231361;22;20123;-65
2022/08/04 02:54:28;;;;;;;12.07;7.85;;;;;;;20.93;56.59;99923.44;6229618;22;20074;-65
2022/08/04 02:56:56;;;;;;;11.45;7.03;;;;;;;20.98;57.91;99919.22;6228711;22;20016;-67
2022/08/04 02:59:25;;;;;;;12.55;8.10;;;;;;;21.06;56.50;99931.91;6230331;22;20089;-72
2022/08/04 03:01:56;;;;;;;10.98;7.30;;;;;;;21.16;57.98;99923.59;6228970;22;20015;-72
2022/08/04 03:04:33;;;;;;;14.02;9.15;;;;;;;21.27;55.94;99921.44;6228494;22;20050;-74
2022/08/04 03:07:39;;;;;;;11.40;8.25;;;;;;;21.38;54.90;99931.06;6229404;22;20151;-73
2022/08/04 03:10:23;;;;;;;12.68;7.97;;;;;;;21.47;57.14;99931.91;6230223;22;20027;-72
2022/08/04 03:12:47;;;;;;;18.67;8.80;;;;;;;21.56;54.12;99928.13;6238714;22;20374;-73
2022/08/04 03:15:15;;;;;;;10.50;7.68;;;;;;;21.67;55.24;99928.63;6228462;22;20332;-74
2022/08/04 03:18:17;;;;;;;14.60;8.43;;;;;;;21.88;56.21;99932.66;6228454;22;20022;-71
2022/08/04 03:21:01;;;;;;;17.10;8.57;;;;;;;21.97;54.20;99931.59;6230171;22;20043;-72
2022/08/04 03:23:41;;;;;;;14.40;7.55;;;;;;;22.20;53.79;99932.53;6202369;22;20529;-74
2022/08/04 03:26:08;;;;;;;13.68;8.30;;;;;;;22.30;53.59;99932.31;6229571;22;20035;-69
2022/08/04 03:28:56;;;;;;;17.77;8.80;;;;;;;22.54;53.41;99940.34;6228523;22;20015;-66
2022/08/04 03:31:30;;;;;;;10.60;7.45;;;;;;;22.70;52.21;99942.09;6228736;22;20019;-66
2022/08/04 03:34:10;;;;;;;18.75;9.20;;;;;;;22.86;51.79;99938.44;6229044;22;20058;-70
2022/08/04 03:37:12;;;;;;;12.27;8.60;;;;;;;23.03;51.13;99940.84;6228426;22;20023;-69
2022/08/04 03:39:49;;;;;;;14.23;9.23;;;;;;;23.13;50.73;99944.19;6203105;22;20026;-71
2022/08/04 03:42:56;;;;;;;14.38;9.27;;;;;;;23.28;51.07;99943.38;6177755;22;20466;-69
2022/08/04 03:45:47;;;;;;;14.00;9.65;;;;;;;23.35;50.32;99945.19;6228658;22;20022;-68
2022/08/04 03:48:33;;;;;;;12.13;8.98;;;;;;;23.57;50.09;99954.34;6136755;23;20553;-69
2022/08/04 03:54:37;;;;;;;17.98;8.63;;;;;;;23.98;49.17;99956.63;6135294;23;20017;-69
2022/08/04 03:57:13;;;;;;;;;;;;;;;24.21;49.08;99958.19;6136407;23;20088;-67
2022/08/04 03:59:56;;;;;;;13.77;8.32;;;;;;;24.30;48.59;99956.25;6113485;23;19945;-68
2022/08/04 04:02:26;;;;;;;11.70;8.45;;;;;;;24.39;48.14;99959.69;6135351;23;20020;-68
2022/08/04 04:05:10;;;;;;;13.73;8.68;;;;;;;24.55;47.41;99959.50;6135644;23;20020;-69
2022/08/04 04:08:11;;;;;;;11.63;7.77;;;;;;;24.82;47.26;99966.94;6085950;23;20039;-70
2022/08/04 04:10:42;;;;;;;12.90;7.85;;;;;;;24.89;44.71;99962.38;6084269;23;20140;-68
2022/08/04 04:13:21;;;;;;;9.63;7.38;;;;;;;24.97;45.43;99961.44;6135701;23;20047;-68
2022/08/04 04:16:06;;;;;;;14.07;8.32;;;;;;;25.17;45.72;99967.09;6136040;23;20523;-69
2022/08/04 04:18:49;;;;;;;16.52;8.40;;;;;;;25.36;45.38;99971.88;6112304;23;20100;-68
2022/08/04 04:21:35;;;;;;;14.88;8.85;;;;;;;25.55;45.12;99973.09;6136531;23;20491;-68
2022/08/04 04:24:23;;;;;;;12.73;7.63;;;;;;;25.64;44.06;99963.72;6093355;22;20028;-67
2022/08/04 04:26:55;;;;;;;13.10;7.80;;;;;;;25.85;43.75;99971.84;6239784;22;20016;-68
2022/08/04 04:29:32;;;;;;;11.20;7.40;;;;;;;26.04;43.32;99967.56;6202021;22;20019;-68
2022/08/04 04:32:15;;;;;;;9.13;7.40;;;;;;;26.22;42.37;99970.59;6239586;22;20461;-69
2022/08/04 04:34:46;;;;;;;10.48;7.15;;;;;;;26.41;42.21;99965.47;6239778;22;20068;-68
2022/08/04 04:37:20;;;;;;;13.43;7.47;;;;;;;26.70;42.68;99965.16;6228181;22;20012;-67
2022/08/04 04:40:10;;;;;;;12.73;7.60;;;;;;;27.07;42.37;99978.31;6229791;22;20027;-67
2022/08/04 04:42:58;;;;;;;13.45;7.75;;;;;;;27.42;42.06;99976.25;6209606;22;20019;-67
2022/08/04 04:45:28;;;;;;;10.88;7.72;;;;;;;27.72;40.56;99978.56;6233110;22;20008;-68
2022/08/04 04:48:15;;;;;;;10.43;7.43;;;;;;;27.97;40.20;99970.53;6231588;22;20011;-68
2022/08/04 04:50:54;;;;;;;10.95;7.63;;;;;;;28.16;39.20;99970.47;6229336;22;20015;-68
2022/08/04 04:53:28;;;;;;;11.27;6.68;;;;;;;28.36;38.98;99977.81;6229895;22;20401;-67
2022/08/04 04:55:59;;;;;;;;;;;;;;;28.49;39.33;99977.75;6230750;22;20451;-67
2022/08/04 04:58:25;;;;;;;10.70;6.72;;;;;;;28.63;36.20;99975.81;6228751;22;19911;-71
2022/08/04 05:00:50;;;;;;;10.90;6.13;;;;;;;28.74;35.21;99981.44;6229803;22;20019;-68
2022/08/04 05:03:47;;;;;;;7.65;6.25;;;;;;;28.98;36.57;99985.34;6229357;22;20023;-68
2022/08/04 05:06:59;;;;;;;9.48;6.30;;;;;;;29.32;36.30;99995.03;6111163;23;20526;-70
2022/08/04 05:09:37;;;;;;;9.55;6.20;;;;;;;29.74;35.42;99998.09;6140106;23;20036;-68
2022/08/04 05:12:07;;;;;;;17.58;6.88;;;;;;;29.76;34.64;99996.81;6136256;23;20024;-68
2022/08/04 05:14:45;;;;;;;11.65;7.25;;;;;;;29.71;34.10;100002.13;6146152;23;20404;-67
2022/08/04 05:17:34;;;;;;;10.20;6.25;;;;;;;29.79;34.47;99993.63;6111747;23;20017;-67
2022/08/04 05:20:26;;;;;;;7.05;5.88;;;;;;;29.83;33.96;99988.50;6103069;23;20028;-67
2022/08/04 05:22:55;;;;;;;7.53;6.25;;;;;;;29.82;33.82;99992.31;6086931;23;20052;-68
2022/08/04 05:25:25;;;;;;;11.73;6.75;;;;;;;29.82;33.94;99987.66;6135766;23;20055;-67
2022/08/04 05:27:58;;;;;;;8.95;6.47;;;;;;;29.91;33.71;99986.28;6136114;23;20505;-68
2022/08/04 05:30:24;;;;;;;10.93;5.70;;;;;;;29.86;33.32;99988.88;6135828;23;20017;-67
2022/08/04 05:32:56;;;;;;;12.35;7.22;;;;;;;29.81;33.23;99990.63;6136344;23;20485;-68
2022/08/04 05:35:28;;;;;;;12.40;7.05;;;;;;;29.77;33.65;99992.16;6086597;23;20016;-67
2022/08/04 05:37:55;;;;;;;12.05;6.55;;;;;;;29.63;32.83;99983.19;6136018;23;20028;-68
2022/08/04 05:40:22;;;;;;;12.20;6.88;;;;;;;29.59;32.65;99987.44;6138038;23;20565;-68
2022/08/04 05:42:47;;;;;;;12.13;6.93;;;;;;;29.61;32.07;99988.06;6180345;22;20011;-67
2022/08/04 05:45:12;;;;;;;9.75;7.07;;;;;;;29.67;32.06;99981.69;6229532;22;20328;-67
2022/08/04 05:47:38;;;;;;;8.77;6.78;;;;;;;29.87;32.83;99984.22;6229548;22;20011;-66
2022/08/04 05:50:05;;;;;;;10.82;6.75;;;;;;;30.11;32.08;99985.28;6229379;22;20011;-68
2022/08/04 05:52:31;;;;;;;10.13;6.57;;;;;;;30.40;31.05;99980.91;6229615;22;20039;-67
2022/08/04 05:54:58;;;;;;;8.65;6.35;;;;;;;30.60;30.28;99981.53;6230779;22;20027;-67
2022/08/04 05:57:24;;;;;;;10.30;6.72;;;;;;;30.87;30.11;99979.28;6230926;22;20023;-66
2022/08/04 05:59:50;;;;;;;7.82;5.43;;;;;;;31.06;29.30;99983.66;6229254;22;20019;-67
2022/08/04 06:02:19;;;;;;;8.80;6.10;;;;;;;31.30;28.47;99987.34;6230870;22;20454;-68
2022/08/04 06:04:48;;;;;;;9.57;5.30;;;;;;;31.29;27.97;99983.75;6231164;22;20020;-69
2022/08/04 06:07:14;;;;;;;9.88;5.63;;;;;;;31.57;27.16;99990.50;6230984;22;20018;-67
2022/08/04 06:09:40;;;;;;;6.63;4.78;;;;;;;31.57;26.83;99993.25;6230948;22;20023;-66
2022/08/04 06:12:13;;;;;;;12.73;6.22;;;;;;;31.64;27.43;99992.09;6229319;22;20027;-67
2022/08/04 06:14:42;;;;;;;7.27;5.43;;;;;;;31.96;26.47;99988.97;6229055;22;20026;-67
2022/08/04 06:17:10;;;;;;;6.28;4.78;;;;;;;32.46;26.10;99986.56;6229036;22;20020;-66
2022/08/04 06:19:38;;;;;;;7.63;5.10;;;;;;;33.03;25.97;99992.97;6229201;22;20027;-67
2022/08/04 06:22:07;;;;;;;7.22;5.13;;;;;;;33.39;25.11;99991.72;6230717;22;20023;-66
2022/08/04 06:24:34;;;;;;;7.13;4.65;;;;;;;33.91;24.17;99994.25;6229179;22;20020;-66
2022/08/04 06:27:00;;;;;;;6.85;4.95;;;;;;;34.40;23.87;99991.66;6230635;22;20102;-66
2022/08/04 06:29:34;;;;;;;7.50;5.40;;;;;;;34.67;22.56;99995.28;6230626;22;20482;-67
2022/08/04 06:32:01;;;;;;;7.25;5.75;;;;;;;35.05;22.66;99990.75;6229495;22;20016;-67
2022/08/04 06:34:27;;;;;;;7.63;5.78;;;;;;;35.38;22.10;99986.97;6231322;22;20523;-68
2022/08/04 06:36:53;;;;;;;6.35;5.70;;;;;;;35.83;21.66;99992.91;6203121;22;20022;-67
2022/08/04 06:39:20;;;;;;;7.68;5.75;;;;;;;36.22;21.27;99996.25;6229045;22;20069;-68
2022/08/04 06:41:45;;;;;;;10.38;6.10;;;;;;;36.77;20.47;100002.34;6229172;22;20020;-69
2022/08/04 06:44:11;;;;;;;11.52;5.40;;;;;;;37.11;20.14;100002.72;6231113;22;20381;-68
2022/08/04 06:46:39;;;;;;;6.95;6.05;;;;;;;37.72;19.56;100000.84;6232846;22;20066;-69
2022/08/04 06:49:04;;;;;;;5.95;5.07;;;;;;;38.23;18.83;100009.97;6231258;22;20492;-68
2022/08/04 06:51:30;;;;;;;7.25;5.85;;;;;;;37.51;18.72;100005.56;6231884;22;20019;-68
2022/08/04 06:53:55;;;;;;;9.32;5.60;;;;;;;37.44;19.77;100005.84;6230618;22;20024;-67
2022/08/04 06:56:23;;;;;;;10.20;6.30;;;;;;;37.55;19.53;100009.47;6231668;22;20047;-69
2022/08/04 06:58:49;;;;;;;7.22;5.70;;;;;;;37.23;19.37;100003.31;6229870;22;20033;-68
2022/08/04 07:01:16;;;;;;;7.38;5.18;;;;;;;37.20;18.99;99992.75;6230027;22;20020;-69
2022/08/04 07:03:42;;;;;;;7.90;5.90;;;;;;;36.79;19.87;99995.41;6204746;22;20068;-69
2022/08/04 07:06:07;;;;;;;8.52;5.70;;;;;;;37.08;19.51;99992.97;6231427;22;20019;-67
2022/08/04 07:08:32;;;;;;;6.03;5.18;;;;;;;37.47;19.08;99996.13;6204094;22;20020;-69
2022/08/04 07:10:58;;;;;;;8.45;5.90;;;;;;;37.90;18.74;99991.09;6231302;22;20024;-68
2022/08/04 07:13:24;;;;;;;9.23;5.88;;;;;;;37.97;18.74;99988.84;6230001;22;20020;-70
2022/08/04 07:15:50;;;;;;;10.63;5.07;;;;;;;38.22;18.86;99987.97;6229347;22;20070;-70
2022/08/04 07:18:15;;;;;;;10.57;6.25;;;;;;;38.47;18.46;99991.53;6203511;22;20428;-68
2022/08/04 07:20:45;;;;;;;8.65;5.63;;;;;;;38.62;17.89;99987.00;6230253;22;20016;-68
2022/08/04 07:23:16;;;;;;;8.05;6.05;;;;;;;38.82;17.85;99989.72;6230785;22;20016;-68
2022/08/04 07:25:41;;;;;;;6.40;5.55;;;;;;;39.21;16.92;99987.81;6237466;22;20023;-70
2022/08/04 07:28:06;;;;;;;7.32;5.78;;;;;;;39.48;16.33;99984.56;6234466;22;20016;-68
2022/08/04 07:30:33;;;;;;;8.80;5.63;;;;;;;39.49;16.24;99985.41;6240634;22;20054;-68
2022/08/04 07:32:59;;;;;;;9.38;5.63;;;;;;;39.81;16.70;99990.41;6236349;22;20019;-68
2022/08/04 07:35:27;;;;;;;8.30;6.03;;;;;;;40.24;16.29;99988.59;6229400;22;20015;-67
2022/08/04 07:37:52;;;;;;;7.60;5.70;;;;;;;39.95;15.33;99985.00;6228776;22;20053;-68
2022/08/04 07:40:16;;;;;;;9.23;6.35;;;;;;;39.21;16.29;99987.81;6230512;22;20015;-68
2022/08/04 07:42:43;;;;;;;8.95;5.32;;;;;;;39.83;16.47;99993.75;6228364;22;20573;-69
2022/08/04 07:45:09;;;;;;;7.43;5.93;;;;;;;39.69;16.37;99995.56;6228126;22;20016;-67
2022/08/04 07:47:34;;;;;;;6.50;5.60;;;;;;;39.28;15.74;99986.66;6229714;22;20016;-66
2022/08/04 07:49:59;;;;;;;7.97;6.15;;;;;;;38.83;16.35;99980.22;6228107;22;20078;-66
2022/08/04 07:52:25;;;;;;;8.68;6.05;;;;;;;38.78;16.70;99977.47;6229891;22;20019;-70
2022/08/04 07:54:50;;;;;;;8.77;6.20;;;;;;;39.69;16.56;99981.59;6202694;22;20358;-68
2022/08/04 07:57:17;;;;;;;8.93;7.07;;;;;;;40.46;15.80;99982.47;6232547;22;20051;-68
2022/08/04 07:59:42;;;;;;;8.63;7.13;;;;;;;41.55;14.96;99985.97;6231631;22;20023;-67
2022/08/04 08:02:07;;;;;;;18.27;7.15;;;;;;;42.45;14.67;99984.59;6231801;22;20019;-69
2022/08/04 08:04:32;;;;;;;9.05;7.57;;;;;;;43.43;14.06;99979.31;6229727;22;20020;-69
2022/08/04 08:06:57;;;;;;;8.90;7.55;;;;;;;44.32;13.59;99990.44;6229899;22;20018;-68
2022/08/04 08:09:22;;;;;;;7.97;7.20;;;;;;;44.50;12.81;99982.88;6228561;22;20081;-68
2022/08/04 08:11:49;;;;;;;8.10;6.75;;;;;;;43.72;12.73;99995.72;6228871;22;20345;-68
2022/08/04 08:14:15;;;;;;;8.88;6.47;;;;;;;42.64;13.59;99990.94;6230840;22;20069;-68
2022/08/04 08:16:40;;;;;;;8.05;6.93;;;;;;;43.08;13.78;99979.00;6229393;22;20394;-68
2022/08/04 08:19:06;;;;;;;9.40;7.80;;;;;;;43.97;12.91;99972.59;6231574;22;20354;-69
2022/08/04 08:21:31;;;;;;;8.73;7.75;;;;;;;44.86;12.47;99989.13;6232023;22;20031;-69
2022/08/04 08:23:57;;;;;;;12.55;11.38;;;;;;;45.95;11.99;99983.28;6206874;22;20401;-66
2022/08/04 08:26:22;;;;;;;8.95;8.10;;;;;;;46.22;11.53;99982.84;6231647;22;20015;-68
2022/08/04 08:28:47;;;;;;;14.10;9.00;;;;;;;46.60;11.45;99993.31;6233305;22;20015;-70
2022/08/04 08:31:12;;;;;;;11.68;8.82;;;;;;;46.22;10.89;99996.94;6231440;22;20023;-68
2022/08/04 08:33:37;;;;;;;9.70;8.82;;;;;;;45.67;11.19;99991.31;6229787;22;20417;-69
2022/08/04 08:36:11;;;;;;;9.40;8.55;;;;;;;46.00;11.76;99994.38;6228216;22;20015;-70
2022/08/04 08:38:38;;;;;;;13.88;9.00;;;;;;;46.74;11.19;99993.88;6229090;22;20015;-69
2022/08/04 08:41:52;;;;;;;10.48;9.48;;;;;;;47.79;11.12;99997.53;6229896;22;20122;-67
2022/08/04 08:44:31;;;;;;;12.35;10.50;;;;;;;48.77;10.36;99998.47;6135445;23;20068;-68
2022/08/04 08:47:17;;;;;;;11.75;10.68;;;;;;;49.80;9.96;99991.06;6139306;23;20032;-68
2022/08/04 08:49:59;;;;;;;12.05;11.23;;;;;;;50.58;9.59;100000.84;6137543;23;20016;-67
2022/08/04 08:52:29;;;;;;;13.60;12.70;;;;;;;50.88;8.87;100002.00;6113753;23;20352;-68
2022/08/04 08:55:12;;;;;;;14.48;13.38;;;;;;;51.26;9.13;100003.25;6138302;23;20127;-70
2022/08/04 08:58:02;;;;;;;15.68;14.57;;;;;;;51.80;8.77;99997.47;6138043;23;20558;-68
2022/08/04 09:00:41;;;;;;;16.00;14.95;;;;;;;49.47;9.52;99999.84;6112801;22;20021;-70
2022/08/04 09:03:32;;;;;;;16.63;15.18;;;;;;;48.85;10.51;99994.72;6136907;23;20021;-70
2022/08/04 09:06:09;;;;;;;12.35;11.35;;;;;;;47.72;11.07;99983.16;6137873;23;20023;-69
2022/08/04 09:08:39;;;;;;;14.23;12.73;;;;;;;46.30;11.70;99991.63;6113892;23;20025;-69
2022/08/04 09:11:53;;;;;;;16.13;11.68;;;;;;;46.99;12.01;99981.59;6140419;23;20112;-69
2022/08/04 09:14:53;;;;;;;12.35;11.25;;;;;;;48.51;11.17;99982.72;5999115;23;20047;-71
2022/08/04 09:17:26;;;;;;;12.52;11.55;;;;;;;49.03;10.14;99991.25;5884998;24;20025;-70
2022/08/04 09:19:58;;;;;;;14.63;13.55;;;;;;;48.85;10.55;99987.06;5868366;23;20025;-69
2022/08/04 09:22:48;;;;;;;15.10;12.07;;;;;;;49.29;10.88;99979.50;5994275;23;20097;-70
2022/08/04 09:25:24;;;;;;;13.93;12.70;;;;;;;48.87;10.98;99983.88;5994990;23;20474;-68
2022/08/04 09:27:54;;;;;;;14.65;13.32;;;;;;;49.28;10.12;99986.38;5994748;23;20042;-68
2022/08/04 09:30:22;;;;;;;16.45;14.80;;;;;;;50.14;9.92;99986.72;5967405;23;20617;-68
2022/08/04 09:33:15;;;;;;;16.48;15.13;;;;;;;51.00;9.42;99986.84;5991636;23;20070;-69
2022/08/04 09:35:58;;;;;;;17.67;16.33;;;;;;;50.53;9.62;99984.06;5991586;23;20098;-68
2022/08/04 09:38:38;;;;;;;21.23;16.27;;;;;;;47.86;10.91;99983.69;5996755;23;20023;-69
2022/08/04 09:41:22;;;;;;;14.15;11.10;;;;;;;46.07;12.02;99985.41;5998830;23;20027;-69
2022/08/04 09:44:24;;;;;;;12.18;10.80;;;;;;;44.26;13.18;99974.00;5996709;23;20034;-68
2022/08/04 09:46:56;;;;;;;13.88;10.07;;;;;;;43.34;14.05;99959.59;5967971;23;20091;-71
2022/08/04 09:49:49;;;;;;;10.75;9.30;;;;;;;43.55;14.03;99959.06;5997678;23;20027;-69
2022/08/04 09:52:31;;;;;;;12.03;10.63;;;;;;;44.06;14.52;99961.38;6052986;23;20045;-68
2022/08/04 09:55:09;;;;;;;11.27;10.18;;;;;;;46.18;12.89;99981.88;6221108;22;20031;-68
2022/08/04 09:58:24;;;;;;;13.18;10.23;;;;;;;48.47;11.86;99973.28;6235096;22;20048;-68
2022/08/04 10:00:57;;;;;;;17.70;15.90;;;;;;;50.20;10.39;99970.31;6127701;22;20475;-69
2022/08/04 10:03:26;;;;;;;17.65;16.13;;;;;;;50.72;9.38;99970.78;6142805;23;20017;-68
2022/08/04 10:06:02;;;;;;;16.63;15.13;;;;;;;50.00;10.44;99967.38;6150346;23;20063;-68
2022/08/04 10:08:45;;;;;;;15.13;13.85;;;;;;;48.02;11.43;99967.69;6149562;23;20032;-70
2022/08/04 10:11:32;;;;;;;17.00;13.02;;;;;;;45.13;13.35;99957.06;6148464;23;20483;-68
2022/08/04 10:14:04;;;;;;;11.52;10.23;;;;;;;42.17;15.46;99949.28;6142850;23;20017;-67
2022/08/04 10:16:50;;;;;;;10.57;9.52;;;;;;;40.16;16.79;99937.00;6142952;23;20156;-67
2022/08/04 10:19:28;;;;;;;10.00;8.40;;;;;;;38.15;18.59;99938.19;6146246;23;20113;-67
2022/08/04 10:22:11;;;;;;;9.90;8.95;;;;;;;36.76;20.35;99932.03;6146047;23;20021;-68
2022/08/04 10:25:03;;;;;;;17.08;8.95;;;;;;;35.80;21.04;99937.94;6121346;23;20447;-67
2022/08/04 10:27:35;;;;;;;11.02;8.45;;;;;;;35.98;21.12;99940.28;6119311;23;20017;-68
2022/08/04 10:30:13;;;;;;;12.18;7.90;;;;;;;37.74;19.62;99945.75;6141947;23;20024;-67
2022/08/04 10:32:52;;;;;;;11.13;8.98;;;;;;;38.12;19.67;99942.34;6137692;23;20017;-70
2022/08/04 10:35:23;;;;;;;12.35;8.18;;;;;;;37.13;19.96;99939.31;6137825;23;20017;-68
2022/08/04 10:38:14;;;;;;;11.00;8.07;;;;;;;35.87;21.62;99938.56;6196733;22;20345;-69
2022/08/04 10:41:13;;;;;;;12.35;9.63;;;;;;;34.84;22.48;99923.22;6230805;22;20445;-67
2022/08/04 10:43:57;;;;;;;9.73;8.25;;;;;;;34.08;24.34;99934.19;6137321;23;20107;-69
2022/08/04 10:46:30;;;;;;;13.15;8.73;;;;;;;33.69;24.57;99927.78;6137490;23;20083;-70
2022/08/04 10:48:58;;;;;;;14.35;8.57;;;;;;;33.33;25.32;99937.44;6137795;23;20040;-68
2022/08/04 10:51:35;;;;;;;11.10;8.48;;;;;;;33.14;25.71;99936.81;6112764;23;20027;-69
2022/08/04 10:54:04;;;;;;;12.85;8.65;;;;;;;32.74;26.00;99930.53;6137736;23;20017;-68
2022/08/04 10:56:58;;;;;;;13.82;8.60;;;;;;;32.42;25.53;99931.00;6088181;23;20047;-67
2022/08/04 10:59:38;;;;;;;11.63;8.75;;;;;;;32.04;26.55;99934.31;6079586;23;20397;-69
2022/08/04 11:02:19;;;;;;;27.67;10.32;;;;;;;31.66;27.26;99931.22;6078853;23;20029;-70
2022/08/04 11:04:52;;;;;;;19.17;10.05;;;;;;;31.22;27.90;99927.91;6053677;23;20022;-69
2022/08/04 11:07:18;;;;;;;15.95;8.77;;;;;;;31.09;28.23;99924.53;6054659;23;20480;-69
2022/08/04 11:09:44;;;;;;;13.52;9.60;;;;;;;31.12;28.34;99927.66;6078612;23;20056;-69
2022/08/04 11:12:15;;;;;;;10.73;9.52;;;;;;;31.18;27.65;99934.13;6054684;23;20375;-70
2022/08/04 11:15:03;;;;;;;14.43;8.43;;;;;;;31.25;27.34;99932.13;6054846;23;20033;-71
2022/08/04 11:17:34;;;;;;;13.10;8.15;;;;;;;31.28;27.86;99926.97;6080991;23;20114;-68
2022/08/04 11:20:02;;;;;;;12.10;8.50;;;;;;;31.26;27.74;99925.53;6094350;23;20087;-71
2022/08/04 11:22:28;;;;;;;8.70;7.80;;;;;;;31.28;27.62;99929.72;6167705;23;20107;-68
2022/08/04 11:25:19;;;;;;;10.32;8.45;;;;;;;31.38;27.50;99929.97;6167272;23;20020;-69
2022/08/04 11:28:10;;;;;;;12.10;8.93;;;;;;;31.54;27.85;99920.16;6167063;23;20018;-69
2022/08/04 11:31:05;;;;;;;12.57;7.60;;;;;;;31.71;27.57;99920.31;6167384;23;20448;-69
2022/08/04 11:33:49;;;;;;;14.68;11.20;;;;;;;31.70;27.40;99926.91;6093412;23;20407;-68
2022/08/04 11:36:24;;;;;;;9.30;8.15;;;;;;;31.76;27.33;99917.66;6185085;22;20019;-69
2022/08/04 11:38:59;;;;;;;12.20;9.57;;;;;;;31.76;27.13;99912.16;6228537;22;20016;-68
2022/08/04 11:41:58;;;;;;;16.75;9.13;;;;;;;31.65;27.33;99922.09;6228905;22;20178;-66
2022/08/04 11:44:30;;;;;;;11.77;9.10;;;;;;;31.44;28.00;99921.84;6137120;23;20028;-66
2022/08/04 11:47:03;;;;;;;11.32;8.60;;;;;;;31.17;28.05;99918.69;6137184;23;20049;-66
2022/08/04 11:49:33;;;;;;;12.85;8.65;;;;;;;30.89;28.25;99924.81;6137130;23;20090;-67
2022/08/04 11:52:01;;;;;;;11.02;9.35;;;;;;;30.80;29.91;99924.31;6137578;23;20024;-66
2022/08/04 11:54:26;;;;;;;12.27;8.57;;;;;;;30.77;29.43;99912.94;6137676;23;20031;-67
2022/08/04 11:56:51;;;;;;;12.88;9.32;;;;;;;30.78;30.43;99915.44;6139606;23;20088;-65
2022/08/04 11:59:18;;;;;;;11.70;10.25;;;;;;;30.81;30.50;99920.50;6112382;23;20024;-63
2022/08/04 12:02:12;;;;;;;11.90;9.25;;;;;;;30.92;30.49;99916.94;6136869;23;20020;-65
2022/08/04 12:04:43;;;;;;;13.20;10.23;;;;;;;30.86;31.15;99915.09;6136383;23;20460;-62
2022/08/04 12:07:45;;;;;;;12.82;9.48;;;;;;;30.82;30.48;99913.06;6136590;23;20037;-64